Ely Municipal Airport
KELO : now visible

Airfield :











YOU CAN JOIN US ON...

 
LOGIN :

Register | Disclaimer

   EN    FR    IT 

 









Legend :    VFR   Marginal VFR   IFR   Intensive IFR   Very Intensive IFR
Visi :
Ceiling :
>= 8 km
>= 3000ft
5 to 8 km
1000 to 3000 ft
1500m to 5 km
500 to 1000 ft
800 to 1500m
200 to 500 ft
< 800m
< 200 ft
Symbols :   Thunderstorms  Fog  Heavy snow  Heavy precipitations  Wind > 20 kt






- Airport Elevation : 1456 ft


KELO - Ely Municipal

CURRENT METAR :
  • 212115Z AUTO 26010G16KT 10SM OVC060 03/M12 A2999 RMK AO2

EXPIRED METARs :
  • 212055Z AUTO 30005KT 10SM OVC060 03/M12 A2999 RMK AO2
  • 212035Z AUTO 28007KT 10SM OVC060 02/M12 A3000 RMK AO2
  • 212015Z AUTO 26009G15KT 10SM OVC060 03/M12 A3000 RMK AO2
  • 211955Z AUTO 27013G17KT 240V310 10SM BKN060 03/M12 A3000 RMK AO2
  • 211935Z AUTO 27010G14KT 10SM BKN060 03/M12 A3001 RMK AO2
  • 211915Z AUTO 24009G15KT 200V270 10SM BKN060 03/M13 A3001 RMK AO2
  • 211855Z AUTO 27005G17KT 10SM BKN060 02/M13 A3002 RMK AO2
  • 211835Z AUTO 22008G16KT 200V270 10SM BKN060 02/M12 A3002 RMK AO2

TAF N/A
KZMP FIR / North America



MET'MAP, your aeronautical weather chart ! - Copyright ORBIFLY December 2007 - Disclaimer

ORBIFLY MET'MAP TEAM :

Programming & Development : Alexandra Zaïnal
Concept & original design : Baudouin d'Aumeries
Assistance for programming : Marc-Olivier Méhu
Technical & hardware support : Manuel Goepfert

Contact : metmap@orbifly.com




SOURCES & CREDITS :

   NOAA       Earth
Advisory